createdAt,value
2022-10-26T00:00:11.517Z,6.28
2022-10-26T00:02:40.643Z,9.07
2022-10-26T00:05:07.437Z,10.57
2022-10-26T00:07:33.845Z,8.95
2022-10-26T00:10:00.253Z,7.38
2022-10-26T00:12:26.593Z,8.38
2022-10-26T00:14:53.069Z,7.75
2022-10-26T00:17:19.489Z,6.55
2022-10-26T00:19:45.918Z,10.30
2022-10-26T00:22:12.288Z,11.52
2022-10-26T00:24:38.684Z,6.60
2022-10-26T00:27:05.372Z,7.22
2022-10-26T00:29:31.778Z,9.38
2022-10-26T00:31:58.174Z,10.18
2022-10-26T00:34:24.588Z,7.07
2022-10-26T00:36:50.961Z,8.45
2022-10-26T00:39:17.351Z,7.07
2022-10-26T00:41:44.015Z,10.13
2022-10-26T00:44:47.296Z,9.55
2022-10-26T00:47:29.632Z,7.97
2022-10-26T00:49:59.518Z,8.57
2022-10-26T00:52:25.990Z,11.90
2022-10-26T00:54:53.950Z,6.55
2022-10-26T00:57:20.936Z,8.32
2022-10-26T00:59:48.148Z,8.75
2022-10-26T01:02:14.593Z,7.72
2022-10-26T01:04:41.231Z,9.02
2022-10-26T01:07:08.439Z,10.32
2022-10-26T01:09:36.068Z,16.02
2022-10-26T01:12:02.507Z,8.57
2022-10-26T01:14:29.695Z,8.18
2022-10-26T01:17:27.562Z,6.13
2022-10-26T01:20:06.176Z,7.90
2022-10-26T01:22:42.176Z,9.23
2022-10-26T01:25:11.570Z,9.38
2022-10-26T01:27:44.684Z,13.10
2022-10-26T01:30:21.942Z,6.85
2022-10-26T01:33:03.612Z,6.57
2022-10-26T01:35:43.314Z,7.38
2022-10-26T01:38:32.870Z,8.70
2022-10-26T01:41:17.021Z,9.57
2022-10-26T01:43:50.637Z,9.13
2022-10-26T01:48:54.165Z,9.13
2022-10-26T01:51:22.141Z,9.15
2022-10-26T01:53:48.508Z,9.45
2022-10-26T01:56:27.234Z,6.28
2022-10-26T01:59:09.565Z,10.05
2022-10-26T02:01:47.794Z,8.85
2022-10-26T02:04:47.858Z,9.95
2022-10-26T02:07:21.327Z,8.98
2022-10-26T02:10:06.968Z,8.15
2022-10-26T02:13:22.654Z,5.53
2022-10-26T02:16:05.419Z,9.75
2022-10-26T02:18:38.022Z,7.78
2022-10-26T02:21:09.180Z,6.15
2022-10-26T02:23:39.732Z,7.30
2022-10-26T02:26:09.328Z,9.30
2022-10-26T02:28:45.500Z,8.73
2022-10-26T02:31:14.966Z,8.05
2022-10-26T02:33:46.866Z,9.85
2022-10-26T02:36:18.140Z,9.70
2022-10-26T02:41:14.123Z,9.65
2022-10-26T02:43:50.613Z,10.43
2022-10-26T02:46:20.780Z,9.75
2022-10-26T02:48:47.338Z,9.75
2022-10-26T02:51:25.021Z,8.30
2022-10-26T02:53:59.835Z,10.93
2022-10-26T02:56:36.522Z,9.52
2022-10-26T02:59:07.728Z,10.48
2022-10-26T03:04:01.089Z,10.07
2022-10-26T03:06:27.557Z,9.40
2022-10-26T03:08:53.997Z,8.43
2022-10-26T03:11:20.465Z,10.70
2022-10-26T03:13:46.856Z,10.57
2022-10-26T03:16:13.328Z,9.90
2022-10-26T03:18:39.886Z,9.18
2022-10-26T03:21:06.330Z,8.73
2022-10-26T03:23:32.748Z,11.27
2022-10-26T03:26:00.054Z,12.18
2022-10-26T03:28:27.260Z,15.73
2022-10-26T03:30:53.677Z,13.23
2022-10-26T03:33:21.557Z,11.63
2022-10-26T03:35:56.995Z,15.43
2022-10-26T03:38:23.641Z,12.40
2022-10-26T03:40:50.068Z,11.88
2022-10-26T03:43:16.514Z,12.07
2022-10-26T03:45:42.932Z,11.77
2022-10-26T03:48:09.503Z,9.65
2022-10-26T03:50:35.886Z,10.70
2022-10-26T03:53:02.316Z,9.82
2022-10-26T03:55:28.690Z,14.27
2022-10-26T03:57:55.072Z,15.40
2022-10-26T04:00:21.536Z,15.27
2022-10-26T04:02:54.797Z,15.57
2022-10-26T04:05:21.379Z,14.60
2022-10-26T04:07:58.565Z,12.30
2022-10-26T04:10:26.750Z,10.75
2022-10-26T04:12:54.409Z,15.65
2022-10-26T04:15:21.550Z,15.18
2022-10-26T04:17:48.732Z,12.10
2022-10-26T04:20:15.578Z,19.80
2022-10-26T04:22:41.991Z,11.02
2022-10-26T04:25:08.752Z,18.67
2022-10-26T04:27:35.511Z,12.85
2022-10-26T04:30:02.162Z,13.65
2022-10-26T04:32:28.536Z,12.07
2022-10-26T04:34:55.235Z,12.18
2022-10-26T04:37:21.637Z,9.88
2022-10-26T04:39:48.022Z,13.15
2022-10-26T04:42:14.415Z,13.15
2022-10-26T04:44:40.801Z,14.48
2022-10-26T04:47:07.155Z,14.68
2022-10-26T04:49:33.538Z,16.35
2022-10-26T04:51:59.910Z,16.55
2022-10-26T04:54:26.284Z,12.00
2022-10-26T04:56:52.684Z,13.30
2022-10-26T04:59:19.128Z,12.32
2022-10-26T05:01:45.614Z,14.30
2022-10-26T05:04:12.192Z,18.83
2022-10-26T05:06:38.725Z,18.27
2022-10-26T05:09:05.320Z,15.75
2022-10-26T05:11:31.708Z,13.38
2022-10-26T05:13:58.096Z,13.18
2022-10-26T05:16:24.521Z,13.07
2022-10-26T05:18:50.889Z,13.32
2022-10-26T05:21:19.643Z,16.08
2022-10-26T05:23:55.191Z,16.30
2022-10-26T05:26:23.250Z,12.60
2022-10-26T05:28:51.441Z,12.65
2022-10-26T05:31:17.831Z,15.35
2022-10-26T05:33:44.234Z,20.92
2022-10-26T05:36:10.642Z,15.95
2022-10-26T05:38:36.995Z,14.73
2022-10-26T05:41:03.408Z,15.20
2022-10-26T05:43:30.265Z,18.10
2022-10-26T05:45:56.637Z,14.20
2022-10-26T05:48:23.040Z,16.92
2022-10-26T05:50:49.458Z,14.70
2022-10-26T05:53:15.876Z,15.38
2022-10-26T05:55:43.070Z,16.42
2022-10-26T05:58:11.031Z,20.63
2022-10-26T06:00:42.192Z,13.25
2022-10-26T06:03:36.388Z,15.57
2022-10-26T06:06:07.263Z,17.08
2022-10-26T06:08:34.252Z,18.55
2022-10-26T06:11:01.266Z,18.55
2022-10-26T06:13:27.999Z,14.45
2022-10-26T06:16:15.658Z,19.50
2022-10-26T06:19:02.084Z,15.93
2022-10-26T06:21:52.002Z,20.20
2022-10-26T06:24:33.877Z,20.08
2022-10-26T06:27:31.472Z,16.15
2022-10-26T06:30:07.002Z,15.80
2022-10-26T06:32:33.954Z,17.10
2022-10-26T06:35:27.864Z,21.35
2022-10-26T06:37:56.840Z,14.65
2022-10-26T06:40:24.074Z,14.07
2022-10-26T06:42:50.694Z,15.57
2022-10-26T06:45:17.975Z,11.48
2022-10-26T06:47:49.985Z,11.60
2022-10-26T06:50:38.133Z,14.43
2022-10-26T06:53:16.716Z,10.05
2022-10-26T06:55:45.368Z,10.77
2022-10-26T06:58:17.093Z,14.15
2022-10-26T07:00:46.506Z,13.05
2022-10-26T07:03:12.917Z,15.80
2022-10-26T07:05:39.385Z,9.43
2022-10-26T07:08:06.051Z,8.07
2022-10-26T07:10:35.032Z,12.02
2022-10-26T07:13:01.397Z,8.23
2022-10-26T07:15:27.744Z,6.70
2022-10-26T07:17:54.216Z,6.97
2022-10-26T07:20:21.398Z,10.32
2022-10-26T07:22:55.934Z,5.45
2022-10-26T07:25:23.499Z,7.38
2022-10-26T07:27:50.070Z,11.93
2022-10-26T07:30:17.216Z,5.72
2022-10-26T07:32:44.445Z,7.15
2022-10-26T07:35:11.167Z,8.55
2022-10-26T07:37:37.646Z,14.43
2022-10-26T07:40:06.484Z,4.75
2022-10-26T07:42:33.044Z,7.03
2022-10-26T07:44:59.386Z,5.72
2022-10-26T07:47:25.814Z,7.50
2022-10-26T07:49:52.196Z,6.28
2022-10-26T07:52:18.570Z,7.75
2022-10-26T07:54:44.997Z,7.13
2022-10-26T07:57:11.350Z,6.35
2022-10-26T07:59:37.880Z,9.82
2022-10-26T08:02:04.367Z,4.65
2022-10-26T08:04:30.783Z,10.25
2022-10-26T08:06:57.238Z,6.72
2022-10-26T08:09:23.682Z,6.15
2022-10-26T08:11:50.058Z,7.40
2022-10-26T08:14:16.421Z,4.63
2022-10-26T08:16:42.853Z,8.52
2022-10-26T08:19:09.337Z,4.63
2022-10-26T08:21:39.539Z,5.40
2022-10-26T08:24:06.733Z,9.05
2022-10-26T08:26:33.226Z,8.85
2022-10-26T08:28:59.578Z,6.65
2022-10-26T08:31:26.038Z,5.07
2022-10-26T08:33:52.480Z,4.25
2022-10-26T08:36:25.499Z,4.45
2022-10-26T08:38:52.559Z,3.75
2022-10-26T08:41:31.165Z,6.22
2022-10-26T08:44:06.607Z,7.30
2022-10-26T08:46:39.878Z,7.60
2022-10-26T08:49:24.193Z,4.90
2022-10-26T08:51:54.919Z,8.35
2022-10-26T08:54:36.120Z,10.65
2022-10-26T08:57:13.159Z,4.40
2022-10-26T08:59:56.330Z,6.57
2022-10-26T09:02:23.995Z,3.45
2022-10-26T09:04:51.933Z,6.15
2022-10-26T09:07:47.775Z,4.65
2022-10-26T09:10:40.507Z,3.63
2022-10-26T09:13:34.529Z,5.35
2022-10-26T09:16:16.019Z,3.42
2022-10-26T09:19:03.434Z,5.28
2022-10-26T09:22:07.450Z,6.10
2022-10-26T09:24:39.549Z,6.53
2022-10-26T09:27:32.546Z,6.22
2022-10-26T09:30:04.318Z,7.30
2022-10-26T09:32:44.445Z,5.40
2022-10-26T09:35:24.895Z,5.35
2022-10-26T09:38:13.572Z,9.00
2022-10-26T09:40:54.839Z,5.22
2022-10-26T09:45:52.305Z,6.43
2022-10-26T09:48:27.447Z,5.25
2022-10-26T09:50:53.927Z,5.03
2022-10-26T09:53:20.298Z,3.80
2022-10-26T09:55:49.444Z,6.57
2022-10-26T09:58:29.692Z,8.73
2022-10-26T10:00:57.453Z,10.98
2022-10-26T10:03:29.454Z,6.15
2022-10-26T10:06:26.581Z,5.47
2022-10-26T10:09:06.376Z,9.00
2022-10-26T10:12:03.682Z,5.32
2022-10-26T10:14:36.116Z,9.75
2022-10-26T10:17:22.566Z,8.88
2022-10-26T10:19:49.470Z,6.78
2022-10-26T10:22:15.813Z,8.20
2022-10-26T10:24:52.630Z,6.15
2022-10-26T10:27:19.167Z,11.18
2022-10-26T10:29:51.466Z,6.18
2022-10-26T10:32:27.721Z,9.77
2022-10-26T10:34:56.026Z,8.07
2022-10-26T10:37:36.256Z,7.20
2022-10-26T10:40:04.804Z,8.60
2022-10-26T10:42:34.128Z,9.50
2022-10-26T10:45:02.409Z,9.27
2022-10-26T10:47:31.594Z,8.00
2022-10-26T10:50:04.670Z,7.65
2022-10-26T10:52:34.100Z,6.63
2022-10-26T10:55:21.789Z,5.90
2022-10-26T10:58:09.758Z,5.72
2022-10-26T11:00:37.814Z,5.20
2022-10-26T11:03:25.038Z,4.32
2022-10-26T11:06:14.988Z,7.03
2022-10-26T11:08:47.636Z,6.93
2022-10-26T11:11:23.122Z,8.90
2022-10-26T11:14:06.258Z,10.75
2022-10-26T11:16:37.485Z,6.57
2022-10-26T11:19:46.045Z,4.75
2022-10-26T11:22:20.729Z,7.07
2022-10-26T11:24:51.306Z,4.82
2022-10-26T11:27:24.498Z,5.00
2022-10-26T11:30:03.248Z,16.20
2022-10-26T11:32:40.947Z,5.43
2022-10-26T11:35:13.257Z,9.15
2022-10-26T11:37:57.762Z,3.72
2022-10-26T11:40:49.883Z,4.03
2022-10-26T11:43:30.825Z,5.70
2022-10-26T11:46:15.260Z,4.93
2022-10-26T11:49:20.322Z,4.38
2022-10-26T11:52:03.035Z,6.40
2022-10-26T11:54:37.376Z,13.18
2022-10-26T11:57:05.015Z,5.03
2022-10-26T11:59:37.495Z,4.93
2022-10-26T12:02:11.200Z,8.40
2022-10-26T12:04:38.870Z,4.30
2022-10-26T12:07:15.652Z,10.48
2022-10-26T12:09:43.966Z,7.13
2022-10-26T12:12:22.643Z,7.20
2022-10-26T12:14:49.446Z,8.65
2022-10-26T12:17:49.002Z,5.95
2022-10-26T12:20:53.225Z,5.53
2022-10-26T12:23:33.844Z,7.03
2022-10-26T12:26:28.467Z,5.32
2022-10-26T12:29:13.308Z,5.07
2022-10-26T12:31:39.615Z,5.18
2022-10-26T12:34:46.183Z,4.13
2022-10-26T12:37:42.008Z,7.55
2022-10-26T12:40:32.401Z,6.80
2022-10-26T12:43:14.170Z,6.65
2022-10-26T12:45:42.072Z,6.90
2022-10-26T12:48:38.768Z,6.10
2022-10-26T12:51:18.902Z,4.45
2022-10-26T12:53:57.521Z,5.47
2022-10-26T12:56:47.163Z,4.10
2022-10-26T12:59:30.095Z,6.57
2022-10-26T13:02:31.528Z,5.80
2022-10-26T13:05:19.832Z,5.03
2022-10-26T13:07:46.836Z,8.00
2022-10-26T13:10:13.171Z,9.15
2022-10-26T13:12:42.328Z,5.60
2022-10-26T13:15:29.223Z,6.18
2022-10-26T13:18:09.199Z,4.95
2022-10-26T13:20:51.142Z,7.93
2022-10-26T13:23:26.247Z,4.43
2022-10-26T13:26:12.612Z,4.18
2022-10-26T13:28:38.997Z,3.90
2022-10-26T13:31:23.766Z,5.72
2022-10-26T13:33:54.103Z,7.55
2022-10-26T13:36:32.974Z,7.78
2022-10-26T13:39:06.169Z,9.07
2022-10-26T13:41:36.690Z,9.68
2022-10-26T13:44:06.095Z,6.68
2022-10-26T13:46:38.971Z,9.30
2022-10-26T13:49:23.076Z,13.35
2022-10-26T13:51:51.986Z,18.77
2022-10-26T13:54:25.163Z,10.40
2022-10-26T13:57:01.734Z,9.00
2022-10-26T13:59:30.114Z,11.02
2022-10-26T14:02:14.648Z,11.63
2022-10-26T14:04:41.249Z,8.60
2022-10-26T14:07:17.677Z,7.68
2022-10-26T14:09:44.286Z,12.35
2022-10-26T14:12:11.483Z,7.07
2022-10-26T14:14:38.958Z,8.30
2022-10-26T14:17:05.917Z,7.47
2022-10-26T14:19:38.048Z,9.75
2022-10-26T14:22:04.884Z,5.75
2022-10-26T14:24:46.902Z,7.97
2022-10-26T14:27:22.673Z,10.70
2022-10-26T14:30:16.873Z,5.53
2022-10-26T14:32:37.589Z,5.93
2022-10-26T14:35:04.270Z,4.55
2022-10-26T14:37:58.848Z,5.20
2022-10-26T14:40:29.771Z,8.13
2022-10-26T14:45:48.546Z,9.10
2022-10-26T14:48:22.812Z,6.55
2022-10-26T14:51:00.058Z,6.78
2022-10-26T14:53:40.919Z,5.45
2022-10-26T14:56:21.484Z,6.45
2022-10-26T14:58:47.997Z,7.40
2022-10-26T15:01:16.491Z,4.70
2022-10-26T15:03:44.807Z,5.90
2022-10-26T15:06:29.685Z,9.38
2022-10-26T15:08:58.052Z,8.13
2022-10-26T15:11:25.882Z,7.13
2022-10-26T15:13:53.701Z,6.95
2022-10-26T15:16:26.624Z,3.35
2022-10-26T15:18:58.315Z,3.95
2022-10-26T15:21:29.508Z,10.77
2022-10-26T15:23:56.801Z,7.05
2022-10-26T15:26:25.491Z,5.82
2022-10-26T15:28:53.408Z,5.63
2022-10-26T15:31:19.765Z,5.30
2022-10-26T15:33:49.171Z,8.48
2022-10-26T15:36:21.585Z,9.45
2022-10-26T15:38:48.494Z,4.93
2022-10-26T15:41:25.942Z,8.13
2022-10-26T15:43:56.554Z,5.22
2022-10-26T15:46:24.312Z,10.52
2022-10-26T15:48:58.786Z,9.43
2022-10-26T15:51:25.960Z,9.23
2022-10-26T15:53:52.424Z,5.00
2022-10-26T15:56:23.384Z,9.25
2022-10-26T15:58:50.108Z,5.88
2022-10-26T16:01:19.544Z,7.50
2022-10-26T16:03:46.350Z,4.93
2022-10-26T16:06:18.464Z,8.23
2022-10-26T16:08:53.394Z,6.88
2022-10-26T16:11:19.793Z,6.57
2022-10-26T16:13:46.289Z,7.43
2022-10-26T16:16:14.485Z,6.82
2022-10-26T16:18:41.292Z,8.52
2022-10-26T16:21:12.352Z,6.25
2022-10-26T16:26:05.975Z,13.43
2022-10-26T16:28:32.718Z,8.77
2022-10-26T16:31:13.704Z,12.45
2022-10-26T16:33:40.107Z,10.02
2022-10-26T16:36:07.308Z,15.32
2022-10-26T16:38:34.338Z,14.90
2022-10-26T16:41:02.280Z,14.50
2022-10-26T16:43:31.123Z,11.70
2022-10-26T16:45:57.546Z,14.27
2022-10-26T16:48:24.006Z,13.60
2022-10-26T16:50:50.449Z,16.50
2022-10-26T16:53:16.942Z,17.20
2022-10-26T16:55:44.178Z,15.07
2022-10-26T16:58:10.637Z,16.20
2022-10-26T17:00:37.626Z,12.98
2022-10-26T17:03:04.343Z,11.35
2022-10-26T17:05:30.710Z,12.93
2022-10-26T17:07:57.085Z,10.55
2022-10-26T17:10:23.652Z,11.57
2022-10-26T17:12:50.354Z,19.20
2022-10-26T17:15:19.783Z,13.85
2022-10-26T17:17:47.053Z,14.25
2022-10-26T17:20:13.502Z,13.38
2022-10-26T17:22:39.907Z,15.10
2022-10-26T17:25:06.526Z,14.65
2022-10-26T17:27:32.909Z,17.42
2022-10-26T17:29:59.285Z,11.13
2022-10-26T17:32:25.646Z,15.13
2022-10-26T17:34:52.018Z,19.75
2022-10-26T17:37:18.448Z,15.13
2022-10-26T17:39:44.807Z,18.92
2022-10-26T17:42:11.188Z,17.13
2022-10-26T17:44:39.028Z,16.60
2022-10-26T17:47:05.526Z,16.30
2022-10-26T17:49:35.814Z,18.50
2022-10-26T17:52:02.535Z,22.70
2022-10-26T17:54:28.890Z,23.00
2022-10-26T17:56:55.254Z,21.20
2022-10-26T17:59:21.615Z,21.35
2022-10-26T18:01:48.071Z,23.15
2022-10-26T18:04:14.494Z,33.65
2022-10-26T18:06:40.887Z,27.27
2022-10-26T18:09:07.258Z,19.85
2022-10-26T18:11:33.693Z,18.10
2022-10-26T18:14:00.090Z,22.85
2022-10-26T18:16:27.759Z,23.35
2022-10-26T18:19:01.577Z,20.30
2022-10-26T18:21:30.214Z,22.33
2022-10-26T18:23:56.788Z,16.20
2022-10-26T18:26:26.387Z,21.80
2022-10-26T18:28:52.899Z,22.70
2022-10-26T18:31:22.406Z,25.92
2022-10-26T18:33:49.032Z,17.08
2022-10-26T18:36:19.050Z,10.63
2022-10-26T18:38:48.623Z,9.40
2022-10-26T18:41:16.893Z,12.20
2022-10-26T18:43:45.535Z,12.88
2022-10-26T18:46:17.684Z,10.30
2022-10-26T18:48:47.161Z,13.68
2022-10-26T18:51:15.882Z,9.32
2022-10-26T18:53:43.688Z,12.80
2022-10-26T18:56:12.994Z,10.25
2022-10-26T18:58:44.361Z,13.40
2022-10-26T19:01:16.231Z,13.57
2022-10-26T19:03:43.368Z,12.13
2022-10-26T19:06:15.876Z,15.57
2022-10-26T19:08:43.197Z,14.48
2022-10-26T19:11:13.340Z,18.55
2022-10-26T19:13:40.066Z,16.65
2022-10-26T19:16:21.702Z,13.00
2022-10-26T19:18:55.749Z,13.73
2022-10-26T19:21:23.300Z,14.00
2022-10-26T19:23:52.020Z,20.85
2022-10-26T19:26:22.017Z,17.17
2022-10-26T19:28:55.142Z,18.90
2022-10-26T19:31:26.236Z,13.07
2022-10-26T19:33:56.241Z,17.73
2022-10-26T19:36:22.855Z,16.20
2022-10-26T19:38:49.363Z,13.98
2022-10-26T19:41:16.371Z,12.20
2022-10-26T19:43:43.662Z,15.77
2022-10-26T19:46:11.591Z,13.35
2022-10-26T19:48:38.924Z,17.20
2022-10-26T19:51:06.008Z,15.00
2022-10-26T19:53:32.687Z,13.75
2022-10-26T19:56:01.394Z,14.40
2022-10-26T19:58:31.203Z,11.55
2022-10-26T20:01:02.422Z,10.55
2022-10-26T20:06:07.965Z,12.57
2022-10-26T20:08:36.008Z,11.65
2022-10-26T20:11:02.759Z,18.80
2022-10-26T20:13:29.211Z,17.00
2022-10-26T20:15:55.898Z,10.25
2022-10-26T20:18:22.421Z,13.10
2022-10-26T20:20:48.942Z,16.98
2022-10-26T20:23:15.493Z,19.67
2022-10-26T20:25:50.410Z,11.65
2022-10-26T20:28:18.845Z,12.35
2022-10-26T20:30:47.572Z,15.77
2022-10-26T20:33:14.385Z,17.30
2022-10-26T20:35:40.964Z,12.70
2022-10-26T20:38:17.350Z,13.80
2022-10-26T20:40:44.450Z,14.80
2022-10-26T20:43:17.493Z,14.43
2022-10-26T20:45:44.439Z,17.50
2022-10-26T20:48:11.702Z,14.82
2022-10-26T20:50:40.163Z,16.13
2022-10-26T20:53:26.505Z,18.67
2022-10-26T20:55:59.366Z,20.30
2022-10-26T20:58:37.836Z,22.27
2022-10-26T21:01:31.794Z,16.98
2022-10-26T21:04:00.248Z,19.58
2022-10-26T21:06:27.336Z,19.42
2022-10-26T21:08:55.441Z,15.70
2022-10-26T21:11:23.283Z,18.20
2022-10-26T21:13:50.322Z,24.67
2022-10-26T21:16:17.335Z,13.20
2022-10-26T21:18:44.083Z,16.83
2022-10-26T21:21:10.721Z,19.48
2022-10-26T21:23:39.066Z,15.65
2022-10-26T21:26:06.331Z,18.52
2022-10-26T21:28:41.616Z,15.98
2022-10-26T21:31:10.431Z,16.77
2022-10-26T21:33:37.059Z,16.10
2022-10-26T21:36:05.736Z,17.13
2022-10-26T21:38:33.073Z,17.08
2022-10-26T21:41:10.433Z,14.70
2022-10-26T21:43:38.341Z,15.98
2022-10-26T21:46:05.615Z,16.38
2022-10-26T21:48:33.502Z,17.25
2022-10-26T21:51:07.808Z,13.52
2022-10-26T21:53:34.327Z,10.02
2022-10-26T21:56:06.472Z,10.95
2022-10-26T21:58:32.889Z,14.00
2022-10-26T22:01:07.651Z,15.93
2022-10-26T22:03:34.705Z,15.38
2022-10-26T22:06:01.633Z,12.75
2022-10-26T22:08:28.583Z,17.60
2022-10-26T22:10:55.564Z,10.18
2022-10-26T22:13:22.047Z,13.50
2022-10-26T22:15:48.663Z,11.38
2022-10-26T22:18:15.264Z,13.35
2022-10-26T22:20:41.671Z,11.32
2022-10-26T22:23:08.857Z,18.00
2022-10-26T22:25:35.272Z,11.70
2022-10-26T22:28:01.671Z,11.30
2022-10-26T22:30:28.039Z,11.40
2022-10-26T22:32:54.438Z,17.70
2022-10-26T22:35:36.091Z,13.35
2022-10-26T22:38:02.486Z,19.00
2022-10-26T22:40:28.889Z,16.02
2022-10-26T22:42:55.253Z,14.23
2022-10-26T22:45:21.608Z,12.55
2022-10-26T22:47:48.010Z,16.58
2022-10-26T22:50:14.471Z,15.38
2022-10-26T22:52:40.857Z,15.75
2022-10-26T22:55:07.696Z,11.32
2022-10-26T22:57:34.084Z,12.93
2022-10-26T23:00:00.444Z,11.93
2022-10-26T23:02:26.891Z,13.15
2022-10-26T23:04:53.288Z,12.30
2022-10-26T23:07:19.690Z,18.17
2022-10-26T23:09:46.061Z,17.50
2022-10-26T23:12:12.429Z,15.27
2022-10-26T23:14:38.779Z,17.02
2022-10-26T23:17:06.109Z,21.48
2022-10-26T23:19:32.490Z,25.35
2022-10-26T23:21:58.875Z,16.98
2022-10-26T23:24:25.235Z,20.58
2022-10-26T23:26:51.590Z,20.00
2022-10-26T23:29:17.968Z,18.27
2022-10-26T23:31:44.322Z,15.93
2022-10-26T23:34:10.685Z,15.70
2022-10-26T23:36:37.068Z,18.92
2022-10-26T23:39:03.488Z,15.65
2022-10-26T23:41:29.901Z,17.58
2022-10-26T23:43:56.307Z,18.40
2022-10-26T23:46:22.741Z,16.27
2022-10-26T23:48:49.128Z,18.92
2022-10-26T23:51:15.512Z,14.00
2022-10-26T23:53:41.898Z,16.65
2022-10-26T23:56:08.273Z,12.55
2022-10-26T23:58:34.740Z,17.17
